Cincinnati, Ohio
Traffic Map
Current Weather Conditions
Cincinnati, Ohio
Clear
Clear

Feels Like: 1°
Wind Chill: Ceiling: Unl
Heat Index: Visibility: 10mi
Dew Point: -12° Wind: 3mph
Humidity: 37% Direction: 120° (ESE)
Pressure: 30.49in Gusts: 0mph
Raw Report DataKLUK 211953Z 12003KT 10SM CLR 01/M12 A3049 RMK AO2 SLP331 T00111122
Traffic Incident Summary
Active as of:
Severity:
Category:
InformationThere was an issue retrieving the traffic information for this location. Please try a different location or try again shortly.
Advertisements
Track Severe Weather on mobile